JFA34T EGGW-EHRD
Flight info
| Callsign | JFA34T |
|---|---|
| Flight time | 0h 42m |
| Altitude | 23000 |
| Route | MATCH Q295 BRAIN M197 REDFA |
| Aircraft | PC24/M-SBDGIRWY/LB2 |
Departure
| Time | 2026-04-30 06:02 |
|---|---|
| Airport | London Luton Airport (EGGW) |
Arrival
| Time | 2026-04-30 06:45 |
|---|---|
| Airport | Rotterdam The Hague Airport (EHRD) |
| Time | Latitude | Longitude | Altitude | Speed | Heading |
|---|---|---|---|---|---|
| 2026-04-30 05:49 | 51.87802 | -0.38036 | 518 ft | 0 kts | 135° |
| 2026-04-30 05:58 | 51.87800 | -0.38031 | 518 ft | 3 kts | 123° |
| 2026-04-30 05:58 | 51.87800 | -0.37928 | 518 ft | 16 kts | 98° |
| 2026-04-30 05:58 | 51.87740 | -0.37694 | 518 ft | 29 kts | 114° |
| 2026-04-30 05:58 | 51.87643 | -0.37469 | 517 ft | 25 kts | 156° |
| 2026-04-30 05:59 | 51.87493 | -0.37604 | 518 ft | 33 kts | 253° |
| 2026-04-30 05:59 | 51.87434 | -0.37952 | 518 ft | 28 kts | 253° |
| 2026-04-30 05:59 | 51.87355 | -0.38076 | 519 ft | 0 kts | 202° |
| 2026-04-30 06:00 | 51.87299 | -0.38111 | 519 ft | 17 kts | 191° |
| 2026-04-30 06:01 | 51.87262 | -0.38006 | 519 ft | 14 kts | 72° |
| 2026-04-30 06:01 | 51.87266 | -0.37987 | 519 ft | 0 kts | 74° |
| 2026-04-30 06:01 | 51.87273 | -0.37941 | 519 ft | 27 kts | 75° |
| 2026-04-30 06:02 | 51.87404 | -0.37186 | 517 ft | 109 kts | 76° |
| 2026-04-30 06:02 | 51.87688 | -0.35755 | 819 ft | 152 kts | 69° |
| 2026-04-30 06:02 | 51.88100 | -0.33950 | 1234 ft | 179 kts | 78° |
| 2026-04-30 06:02 | 51.88323 | -0.32200 | 1597 ft | 140 kts | 83° |
| 2026-04-30 06:03 | 51.88552 | -0.30662 | 1943 ft | 138 kts | 83° |
| 2026-04-30 06:03 | 51.88806 | -0.29083 | 2315 ft | 158 kts | 82° |
| 2026-04-30 06:03 | 51.89115 | -0.27228 | 2745 ft | 186 kts | 80° |
| 2026-04-30 06:03 | 51.89478 | -0.25100 | 3184 ft | 202 kts | 81° |
| 2026-04-30 06:04 | 51.89508 | -0.22831 | 3591 ft | 202 kts | 105° |
| 2026-04-30 06:04 | 51.88913 | -0.20785 | 3977 ft | 201 kts | 127° |
| 2026-04-30 06:04 | 51.87818 | -0.19356 | 4363 ft | 207 kts | 150° |
| 2026-04-30 06:05 | 51.85055 | -0.17848 | 5001 ft | 213 kts | 153° |
| 2026-04-30 06:05 | 51.83700 | -0.16907 | 5000 ft | 210 kts | 151° |
| 2026-04-30 06:05 | 51.82352 | -0.15928 | 5001 ft | 216 kts | 151° |
| 2026-04-30 06:05 | 51.80971 | -0.14937 | 5068 ft | 219 kts | 152° |
| 2026-04-30 06:06 | 51.79564 | -0.13940 | 5082 ft | 221 kts | 152° |
| 2026-04-30 06:06 | 51.78246 | -0.12716 | 5072 ft | 218 kts | 140° |
| 2026-04-30 06:06 | 51.77146 | -0.11045 | 5071 ft | 217 kts | 128° |
| 2026-04-30 06:06 | 51.76314 | -0.09032 | 5071 ft | 216 kts | 117° |
| 2026-04-30 06:07 | 51.75781 | -0.06766 | 5071 ft | 221 kts | 106° |
| 2026-04-30 06:07 | 51.75580 | -0.04243 | 5383 ft | 231 kts | 94° |
| 2026-04-30 06:07 | 51.75727 | -0.01593 | 5895 ft | 240 kts | 85° |
| 2026-04-30 06:07 | 51.75953 | 0.01109 | 6613 ft | 240 kts | 86° |
| 2026-04-30 06:08 | 51.76169 | 0.03847 | 7410 ft | 250 kts | 86° |
| 2026-04-30 06:08 | 51.76396 | 0.06631 | 8264 ft | 255 kts | 86° |
| 2026-04-30 06:08 | 51.76633 | 0.09511 | 9145 ft | 263 kts | 85° |
| 2026-04-30 06:08 | 51.76881 | 0.12464 | 10053 ft | 268 kts | 85° |
| 2026-04-30 06:09 | 51.77132 | 0.15475 | 10892 ft | 273 kts | 85° |
| 2026-04-30 06:09 | 51.77385 | 0.18539 | 11739 ft | 278 kts | 85° |
| 2026-04-30 06:09 | 51.77643 | 0.21671 | 12666 ft | 283 kts | 85° |
| 2026-04-30 06:09 | 51.77903 | 0.24835 | 13683 ft | 286 kts | 85° |
| 2026-04-30 06:10 | 51.78165 | 0.28044 | 14570 ft | 291 kts | 86° |
| 2026-04-30 06:10 | 51.78427 | 0.31303 | 15427 ft | 295 kts | 85° |
| 2026-04-30 06:10 | 51.78692 | 0.34604 | 16308 ft | 298 kts | 85° |
| 2026-04-30 06:10 | 51.78960 | 0.37936 | 17215 ft | 300 kts | 85° |
| 2026-04-30 06:11 | 51.79230 | 0.41294 | 18103 ft | 303 kts | 85° |
| 2026-04-30 06:11 | 51.79499 | 0.44696 | 18904 ft | 308 kts | 85° |
| 2026-04-30 06:11 | 51.79774 | 0.48152 | 19611 ft | 313 kts | 85° |
| 2026-04-30 06:11 | 51.80051 | 0.51664 | 20336 ft | 318 kts | 85° |
| 2026-04-30 06:12 | 51.80332 | 0.55229 | 21076 ft | 322 kts | 85° |
| 2026-04-30 06:12 | 51.80617 | 0.58864 | 21683 ft | 331 kts | 85° |
| 2026-04-30 06:12 | 51.80909 | 0.62617 | 22205 ft | 342 kts | 85° |
| 2026-04-30 06:12 | 51.81292 | 0.66449 | 22737 ft | 351 kts | 79° |
| 2026-04-30 06:13 | 51.81913 | 0.70314 | 23206 ft | 360 kts | 78° |
| 2026-04-30 06:13 | 51.82518 | 0.74320 | 23299 ft | 371 kts | 79° |
| 2026-04-30 06:13 | 51.83122 | 0.78372 | 23305 ft | 373 kts | 78° |
| 2026-04-30 06:13 | 51.83764 | 0.82457 | 23311 ft | 375 kts | 76° |
| 2026-04-30 06:14 | 51.84516 | 0.86499 | 23317 ft | 376 kts | 75° |
| 2026-04-30 06:14 | 51.85269 | 0.90558 | 23318 ft | 376 kts | 76° |
| 2026-04-30 06:14 | 51.86004 | 0.94614 | 23320 ft | 376 kts | 76° |
| 2026-04-30 06:14 | 51.86737 | 0.98673 | 23317 ft | 376 kts | 76° |
| 2026-04-30 06:15 | 51.87474 | 1.02726 | 23314 ft | 375 kts | 76° |
| 2026-04-30 06:15 | 51.88211 | 1.06781 | 23319 ft | 375 kts | 76° |
| 2026-04-30 06:15 | 51.88942 | 1.10823 | 23314 ft | 374 kts | 76° |
| 2026-04-30 06:15 | 51.89672 | 1.14874 | 23317 ft | 375 kts | 76° |
| 2026-04-30 06:16 | 51.90402 | 1.18932 | 23316 ft | 376 kts | 76° |
| 2026-04-30 06:16 | 51.91133 | 1.23002 | 23316 ft | 377 kts | 76° |
| 2026-04-30 06:16 | 51.91865 | 1.27084 | 23318 ft | 377 kts | 76° |
| 2026-04-30 06:16 | 51.92583 | 1.31100 | 23321 ft | 376 kts | 76° |
| 2026-04-30 06:17 | 51.93309 | 1.35162 | 23319 ft | 375 kts | 76° |
| 2026-04-30 06:17 | 51.94029 | 1.39213 | 23321 ft | 374 kts | 76° |
| 2026-04-30 06:17 | 51.94749 | 1.43269 | 23320 ft | 374 kts | 76° |
| 2026-04-30 06:17 | 51.95468 | 1.47326 | 23323 ft | 375 kts | 76° |
| 2026-04-30 06:18 | 51.96188 | 1.51401 | 23322 ft | 376 kts | 76° |
| 2026-04-30 06:18 | 51.96907 | 1.55476 | 23324 ft | 376 kts | 76° |
| 2026-04-30 06:18 | 51.97626 | 1.59557 | 23322 ft | 376 kts | 76° |
| 2026-04-30 06:18 | 51.98342 | 1.63634 | 23326 ft | 376 kts | 76° |
| 2026-04-30 06:19 | 51.99057 | 1.67715 | 23326 ft | 376 kts | 76° |
| 2026-04-30 06:19 | 51.99701 | 1.71810 | 23321 ft | 375 kts | 77° |
| 2026-04-30 06:19 | 52.00339 | 1.75913 | 23329 ft | 375 kts | 77° |
| 2026-04-30 06:19 | 52.00986 | 1.80009 | 23327 ft | 375 kts | 77° |
| 2026-04-30 06:20 | 52.01625 | 1.84112 | 23329 ft | 375 kts | 77° |
| 2026-04-30 06:20 | 52.02259 | 1.88219 | 23327 ft | 375 kts | 77° |
| 2026-04-30 06:20 | 52.02892 | 1.92324 | 23329 ft | 374 kts | 77° |
| 2026-04-30 06:20 | 52.03525 | 1.96424 | 23331 ft | 374 kts | 77° |
| 2026-04-30 06:21 | 52.04157 | 2.00527 | 23331 ft | 374 kts | 77° |
| 2026-04-30 06:21 | 52.04787 | 2.04635 | 23334 ft | 374 kts | 77° |
| 2026-04-30 06:21 | 52.05415 | 2.08741 | 23337 ft | 374 kts | 77° |
| 2026-04-30 06:21 | 52.06042 | 2.12845 | 23336 ft | 374 kts | 77° |
| 2026-04-30 06:22 | 52.06664 | 2.16939 | 23336 ft | 374 kts | 77° |
| 2026-04-30 06:22 | 52.07278 | 2.20979 | 23338 ft | 373 kts | 77° |
| 2026-04-30 06:22 | 52.07898 | 2.25070 | 23338 ft | 373 kts | 77° |
| 2026-04-30 06:22 | 52.08519 | 2.29186 | 22944 ft | 374 kts | 77° |
| 2026-04-30 06:23 | 52.09133 | 2.33257 | 22463 ft | 367 kts | 77° |
| 2026-04-30 06:23 | 52.09737 | 2.37273 | 21985 ft | 364 kts | 77° |
| 2026-04-30 06:23 | 52.10329 | 2.41257 | 21511 ft | 360 kts | 78° |
| 2026-04-30 06:23 | 52.10661 | 2.45270 | 21039 ft | 357 kts | 88° |
| 2026-04-30 06:24 | 52.10572 | 2.49283 | 20570 ft | 354 kts | 97° |
| 2026-04-30 06:24 | 52.10082 | 2.53190 | 20110 ft | 352 kts | 105° |
| 2026-04-30 06:24 | 52.09209 | 2.56903 | 19649 ft | 350 kts | 113° |
| 2026-04-30 06:24 | 52.08195 | 2.60489 | 19179 ft | 349 kts | 113° |
| 2026-04-30 06:25 | 52.07202 | 2.64065 | 18732 ft | 345 kts | 113° |
| 2026-04-30 06:25 | 52.06215 | 2.67608 | 18242 ft | 342 kts | 113° |
| 2026-04-30 06:25 | 52.05232 | 2.71109 | 17789 ft | 339 kts | 113° |
| 2026-04-30 06:25 | 52.04256 | 2.74582 | 17345 ft | 337 kts | 113° |
| 2026-04-30 06:26 | 52.03286 | 2.78036 | 16900 ft | 334 kts | 113° |
| 2026-04-30 06:26 | 52.02324 | 2.81455 | 16462 ft | 332 kts | 113° |
| 2026-04-30 06:26 | 52.01366 | 2.84853 | 16025 ft | 330 kts | 113° |
| 2026-04-30 06:26 | 52.00414 | 2.88226 | 15593 ft | 327 kts | 114° |
| 2026-04-30 06:27 | 51.99470 | 2.91568 | 15167 ft | 325 kts | 114° |
| 2026-04-30 06:27 | 51.98530 | 2.94888 | 14731 ft | 323 kts | 114° |
| 2026-04-30 06:27 | 51.97912 | 2.97070 | 14456 ft | 321 kts | 114° |
| 2026-04-30 06:27 | 51.96984 | 3.00338 | 14015 ft | 318 kts | 114° |
| 2026-04-30 06:28 | 51.95768 | 3.04617 | 13451 ft | 313 kts | 114° |
| 2026-04-30 06:28 | 51.94859 | 3.07814 | 13036 ft | 312 kts | 114° |
| 2026-04-30 06:28 | 51.93953 | 3.10991 | 12630 ft | 310 kts | 114° |
| 2026-04-30 06:28 | 51.93344 | 3.13126 | 12347 ft | 308 kts | 114° |
| 2026-04-30 06:29 | 51.92448 | 3.16261 | 11947 ft | 305 kts | 114° |
| 2026-04-30 06:29 | 51.91559 | 3.19373 | 11540 ft | 303 kts | 114° |
| 2026-04-30 06:29 | 51.90673 | 3.22462 | 11144 ft | 301 kts | 114° |
| 2026-04-30 06:29 | 51.89805 | 3.25493 | 10749 ft | 300 kts | 114° |
| 2026-04-30 06:30 | 51.88928 | 3.28544 | 10354 ft | 298 kts | 115° |
| 2026-04-30 06:30 | 51.88059 | 3.31570 | 9942 ft | 296 kts | 115° |
| 2026-04-30 06:30 | 51.87204 | 3.34536 | 9552 ft | 281 kts | 115° |
| 2026-04-30 06:30 | 51.86416 | 3.37272 | 9191 ft | 257 kts | 114° |
| 2026-04-30 06:31 | 51.85688 | 3.39790 | 8861 ft | 239 kts | 114° |
| 2026-04-30 06:31 | 51.84998 | 3.42182 | 8556 ft | 233 kts | 114° |
| 2026-04-30 06:31 | 51.84313 | 3.44552 | 8253 ft | 232 kts | 114° |
| 2026-04-30 06:31 | 51.83629 | 3.46915 | 7948 ft | 232 kts | 114° |
| 2026-04-30 06:32 | 51.82947 | 3.49268 | 7645 ft | 231 kts | 114° |
| 2026-04-30 06:32 | 51.82266 | 3.51618 | 7340 ft | 231 kts | 114° |
| 2026-04-30 06:32 | 51.81597 | 3.53922 | 7040 ft | 222 kts | 114° |
| 2026-04-30 06:32 | 51.80945 | 3.56165 | 6744 ft | 219 kts | 115° |
| 2026-04-30 06:33 | 51.80395 | 3.58432 | 6443 ft | 216 kts | 105° |
| 2026-04-30 06:33 | 51.80190 | 3.60804 | 6359 ft | 213 kts | 94° |
| 2026-04-30 06:33 | 51.80314 | 3.63169 | 6280 ft | 207 kts | 83° |
| 2026-04-30 06:33 | 51.80568 | 3.65407 | 6178 ft | 200 kts | 83° |
| 2026-04-30 06:34 | 51.80800 | 3.67606 | 6069 ft | 198 kts | 83° |
| 2026-04-30 06:34 | 51.81036 | 3.69805 | 5820 ft | 202 kts | 83° |
| 2026-04-30 06:34 | 51.81274 | 3.72004 | 5515 ft | 195 kts | 83° |
| 2026-04-30 06:34 | 51.81505 | 3.74134 | 5327 ft | 192 kts | 83° |
| 2026-04-30 06:35 | 51.81734 | 3.76268 | 5184 ft | 193 kts | 83° |
| 2026-04-30 06:35 | 51.81962 | 3.78404 | 5049 ft | 193 kts | 84° |
| 2026-04-30 06:35 | 51.82193 | 3.80550 | 4937 ft | 194 kts | 84° |
| 2026-04-30 06:35 | 51.82422 | 3.82685 | 4796 ft | 192 kts | 83° |
| 2026-04-30 06:36 | 51.82648 | 3.84797 | 4668 ft | 190 kts | 83° |
| 2026-04-30 06:36 | 51.82871 | 3.86897 | 4546 ft | 189 kts | 83° |
| 2026-04-30 06:36 | 51.83096 | 3.89001 | 4424 ft | 190 kts | 83° |
| 2026-04-30 06:36 | 51.83319 | 3.91112 | 4302 ft | 191 kts | 83° |
| 2026-04-30 06:37 | 51.83545 | 3.93224 | 4183 ft | 193 kts | 83° |
| 2026-04-30 06:37 | 51.83777 | 3.95433 | 4056 ft | 203 kts | 84° |
| 2026-04-30 06:37 | 51.84015 | 3.97705 | 3918 ft | 206 kts | 83° |
| 2026-04-30 06:37 | 51.84255 | 3.99963 | 3782 ft | 207 kts | 83° |
| 2026-04-30 06:38 | 51.84499 | 4.02250 | 3645 ft | 206 kts | 83° |
| 2026-04-30 06:38 | 51.84737 | 4.04525 | 3504 ft | 205 kts | 83° |
| 2026-04-30 06:38 | 51.84973 | 4.06787 | 3369 ft | 204 kts | 84° |
| 2026-04-30 06:38 | 51.85209 | 4.09040 | 3236 ft | 198 kts | 84° |
| 2026-04-30 06:39 | 51.85434 | 4.11144 | 3106 ft | 182 kts | 83° |
| 2026-04-30 06:39 | 51.85635 | 4.13074 | 3003 ft | 164 kts | 84° |
| 2026-04-30 06:39 | 51.85818 | 4.14869 | 2897 ft | 161 kts | 84° |
| 2026-04-30 06:39 | 51.86003 | 4.16654 | 2794 ft | 161 kts | 84° |
| 2026-04-30 06:40 | 51.86204 | 4.18445 | 2693 ft | 162 kts | 82° |
| 2026-04-30 06:40 | 51.86463 | 4.20207 | 2589 ft | 162 kts | 80° |
| 2026-04-30 06:40 | 51.86890 | 4.21890 | 2480 ft | 165 kts | 66° |
| 2026-04-30 06:40 | 51.87480 | 4.23468 | 2350 ft | 159 kts | 65° |
| 2026-04-30 06:41 | 51.88089 | 4.25027 | 2260 ft | 163 kts | 64° |
| 2026-04-30 06:41 | 51.88716 | 4.26603 | 2148 ft | 167 kts | 64° |
| 2026-04-30 06:41 | 51.89342 | 4.28167 | 2046 ft | 164 kts | 64° |
| 2026-04-30 06:41 | 51.89968 | 4.29730 | 1981 ft | 169 kts | 64° |
| 2026-04-30 06:42 | 51.90593 | 4.31295 | 1768 ft | 165 kts | 64° |
| 2026-04-30 06:42 | 51.91221 | 4.32864 | 1539 ft | 166 kts | 64° |
| 2026-04-30 06:42 | 51.91830 | 4.34384 | 1319 ft | 157 kts | 63° |
| 2026-04-30 06:42 | 51.92411 | 4.35826 | 1100 ft | 145 kts | 64° |
| 2026-04-30 06:43 | 51.92906 | 4.37055 | 918 ft | 137 kts | 64° |
| 2026-04-30 06:43 | 51.93419 | 4.38339 | 720 ft | 129 kts | 62° |
| 2026-04-30 06:43 | 51.93889 | 4.39513 | 547 ft | 123 kts | 62° |
| 2026-04-30 06:43 | 51.94348 | 4.40635 | 395 ft | 111 kts | 61° |
| 2026-04-30 06:44 | 51.94750 | 4.41650 | 197 ft | 108 kts | 63° |
| 2026-04-30 06:44 | 51.95150 | 4.42674 | 106 ft | 110 kts | 62° |
| 2026-04-30 06:44 | 51.95555 | 4.43697 | -2 ft | 101 kts | 59° |
| 2026-04-30 06:44 | 51.95884 | 4.44501 | -6 ft | 52 kts | 57° |
| 2026-04-30 06:45 | 51.96008 | 4.44825 | -5 ft | 34 kts | 57° |
| 2026-04-30 06:45 | 51.96113 | 4.45085 | -3 ft | 20 kts | 60° |
| 2026-04-30 06:45 | 51.96152 | 4.45286 | -2 ft | 19 kts | 105° |
| 2026-04-30 06:45 | 51.96072 | 4.45404 | -4 ft | 0 kts | 182° |
| 2026-04-30 06:46 | 51.96059 | 4.45400 | -4 ft | 6 kts | 197° |
| 2026-04-30 06:47 | 51.96005 | 4.45305 | -4 ft | 18 kts | 236° |
| 2026-04-30 06:47 | 51.95919 | 4.45095 | -4 ft | 27 kts | 235° |
| 2026-04-30 06:47 | 51.95801 | 4.44799 | -4 ft | 35 kts | 237° |
| 2026-04-30 06:47 | 51.95658 | 4.44436 | -4 ft | 41 kts | 237° |
| 2026-04-30 06:48 | 51.95494 | 4.44031 | -4 ft | 44 kts | 236° |
| 2026-04-30 06:48 | 51.95339 | 4.43638 | -4 ft | 32 kts | 237° |
| 2026-04-30 06:48 | 51.95236 | 4.43519 | -4 ft | 19 kts | 152° |
| 2026-04-30 06:48 | 51.95126 | 4.43634 | -4 ft | 19 kts | 147° |
| 2026-04-30 06:49 | 51.95022 | 4.43758 | -4 ft | 14 kts | 111° |
| 2026-04-30 06:49 | 51.95032 | 4.43812 | -4 ft | 5 kts | 51° |
| 2026-04-30 06:49 | 51.95053 | 4.43813 | -4 ft | 4 kts | 324° |
| 2026-04-30 06:49 | 51.95060 | 4.43805 | -4 ft | 0 kts | 325° |